createdAt,value
2023-05-26T00:00:29.178Z,24.06
2023-05-26T00:01:29.186Z,24.08
2023-05-26T00:02:29.303Z,24.10
2023-05-26T00:03:29.493Z,24.10
2023-05-26T00:04:29.338Z,24.10
2023-05-26T00:05:29.307Z,24.11
2023-05-26T00:06:29.329Z,24.10
2023-05-26T00:07:29.361Z,24.11
2023-05-26T00:08:29.391Z,24.11
2023-05-26T00:09:29.481Z,24.11
2023-05-26T00:10:29.460Z,24.10
2023-05-26T00:11:29.494Z,24.09
2023-05-26T00:12:29.521Z,24.09
2023-05-26T00:13:29.605Z,24.10
2023-05-26T00:14:29.622Z,24.09
2023-05-26T00:15:29.670Z,24.09
2023-05-26T00:16:29.773Z,24.09
2023-05-26T00:17:29.764Z,24.08
2023-05-26T00:18:29.817Z,24.07
2023-05-26T00:19:29.875Z,24.07
2023-05-26T00:20:30.033Z,24.07
2023-05-26T00:21:29.976Z,24.06
2023-05-26T00:22:30.016Z,24.07
2023-05-26T00:23:30.062Z,24.06
2023-05-26T00:24:30.117Z,24.05
2023-05-26T00:25:30.169Z,24.06
2023-05-26T00:26:30.238Z,24.06
2023-05-26T00:27:30.282Z,24.05
2023-05-26T00:28:30.337Z,24.05
2023-05-26T00:29:30.408Z,24.05
2023-05-26T00:30:30.443Z,24.03
2023-05-26T00:31:30.705Z,24.03
2023-05-26T00:32:30.578Z,24.02
2023-05-26T00:33:30.600Z,24.01
2023-05-26T00:34:30.660Z,24.01
2023-05-26T00:35:30.711Z,24.01
2023-05-26T00:36:30.772Z,24.02
2023-05-26T00:37:30.816Z,24.01
2023-05-26T00:38:30.869Z,24.01
2023-05-26T00:39:30.940Z,24.00
2023-05-26T00:40:30.990Z,24.00
2023-05-26T00:41:31.041Z,24.00
2023-05-26T00:42:31.093Z,24.00
2023-05-26T00:43:31.159Z,23.99
2023-05-26T00:44:31.215Z,23.98
2023-05-26T00:45:31.317Z,23.97
2023-05-26T00:46:31.378Z,23.98
2023-05-26T00:47:31.397Z,23.98
2023-05-26T00:48:31.435Z,23.97
2023-05-26T00:49:31.483Z,23.96
2023-05-26T00:50:31.546Z,23.97
2023-05-26T00:51:31.603Z,23.96
2023-05-26T00:52:31.666Z,23.96
2023-05-26T00:53:31.724Z,23.95
2023-05-26T00:54:31.767Z,23.95
2023-05-26T00:55:31.828Z,23.95
2023-05-26T00:56:31.888Z,23.94
2023-05-26T00:57:31.940Z,23.93
2023-05-26T00:58:32.006Z,23.93
2023-05-26T00:59:32.055Z,23.92
2023-05-26T01:00:32.112Z,23.92
2023-05-26T01:01:32.298Z,23.92
2023-05-26T01:02:32.302Z,23.92
2023-05-26T01:03:32.389Z,23.92
2023-05-26T01:04:32.347Z,23.91
2023-05-26T01:05:32.419Z,23.92
2023-05-26T01:06:32.464Z,23.92
2023-05-26T01:07:32.521Z,23.92
2023-05-26T01:08:32.584Z,23.90
2023-05-26T01:09:32.664Z,23.91
2023-05-26T01:10:32.724Z,23.91
2023-05-26T01:11:32.792Z,23.91
2023-05-26T01:12:32.866Z,23.90
2023-05-26T01:13:32.917Z,23.90
2023-05-26T01:14:32.977Z,23.90
2023-05-26T01:15:33.067Z,23.89
2023-05-26T01:16:33.157Z,23.89
2023-05-26T01:17:33.275Z,23.88
2023-05-26T01:18:33.260Z,23.88
2023-05-26T01:19:33.323Z,23.88
2023-05-26T01:20:33.470Z,23.88
2023-05-26T01:21:33.451Z,23.88
2023-05-26T01:22:33.514Z,23.87
2023-05-26T01:23:33.596Z,23.87
2023-05-26T01:24:33.644Z,23.87
2023-05-26T01:25:33.705Z,23.87
2023-05-26T01:26:33.760Z,23.86
2023-05-26T01:27:33.823Z,23.86
2023-05-26T01:28:33.884Z,23.86
2023-05-26T01:29:33.939Z,23.85
2023-05-26T01:30:34.009Z,23.85
2023-05-26T01:31:34.071Z,23.85
2023-05-26T01:32:34.148Z,23.85
2023-05-26T01:33:34.272Z,23.85
2023-05-26T01:34:34.254Z,23.86
2023-05-26T01:35:34.317Z,23.85
2023-05-26T01:36:34.407Z,23.85
2023-05-26T01:37:34.459Z,23.83
2023-05-26T01:38:34.524Z,23.83
2023-05-26T01:39:34.587Z,23.83
2023-05-26T01:40:34.671Z,23.82
2023-05-26T01:41:34.699Z,23.84
2023-05-26T01:42:34.747Z,23.83
2023-05-26T01:43:34.785Z,23.83
2023-05-26T01:44:34.834Z,23.82
2023-05-26T01:45:34.897Z,23.82
2023-05-26T01:46:35.017Z,23.82
2023-05-26T01:47:35.096Z,23.82
2023-05-26T01:48:35.076Z,23.82
2023-05-26T01:49:35.141Z,23.82
2023-05-26T01:50:35.189Z,23.81
2023-05-26T01:51:35.241Z,23.81
2023-05-26T01:52:35.298Z,23.81
2023-05-26T01:53:35.372Z,23.81
2023-05-26T01:54:35.453Z,23.80
2023-05-26T01:55:35.522Z,23.81
2023-05-26T01:56:35.594Z,23.80
2023-05-26T01:57:35.658Z,23.80
2023-05-26T01:58:35.718Z,23.80
2023-05-26T01:59:35.779Z,23.81
2023-05-26T02:00:35.836Z,23.80
2023-05-26T02:01:35.898Z,23.80
2023-05-26T02:02:36.025Z,23.80
2023-05-26T02:03:36.009Z,23.79
2023-05-26T02:04:35.972Z,23.80
2023-05-26T02:05:36.019Z,23.79
2023-05-26T02:06:36.037Z,23.80
2023-05-26T02:07:36.064Z,23.80
2023-05-26T02:08:36.105Z,23.79
2023-05-26T02:09:36.172Z,23.79
2023-05-26T02:10:36.255Z,23.79
2023-05-26T02:11:36.271Z,23.80
2023-05-26T02:12:36.332Z,23.79
2023-05-26T02:13:36.400Z,23.78
2023-05-26T02:14:36.456Z,23.79
2023-05-26T02:15:36.557Z,23.79
2023-05-26T02:16:36.611Z,23.78
2023-05-26T02:17:36.678Z,23.78
2023-05-26T02:18:36.710Z,23.78
2023-05-26T02:19:36.774Z,23.78
2023-05-26T02:20:36.895Z,23.78
2023-05-26T02:21:36.942Z,23.78
2023-05-26T02:22:36.958Z,23.78
2023-05-26T02:23:37.025Z,23.77
2023-05-26T02:24:37.078Z,23.77
2023-05-26T02:25:37.139Z,23.77
2023-05-26T02:26:37.206Z,23.77
2023-05-26T02:27:37.265Z,23.77
2023-05-26T02:28:37.368Z,23.77
2023-05-26T02:29:37.399Z,23.78
2023-05-26T02:30:37.459Z,23.77
2023-05-26T02:31:42.521Z,23.77
2023-05-26T02:32:37.647Z,23.76
2023-05-26T02:33:37.535Z,23.76
2023-05-26T02:34:37.556Z,23.77
2023-05-26T02:35:37.546Z,23.77
2023-05-26T02:36:37.547Z,23.77
2023-05-26T02:37:37.617Z,23.78
2023-05-26T02:38:37.554Z,23.76
2023-05-26T02:39:37.566Z,23.76
2023-05-26T02:40:37.562Z,23.76
2023-05-26T02:41:37.560Z,23.76
2023-05-26T02:42:37.573Z,23.76
2023-05-26T02:43:37.548Z,23.76
2023-05-26T02:44:37.543Z,23.76
2023-05-26T02:45:37.619Z,23.76
2023-05-26T02:46:37.520Z,23.76
2023-05-26T02:47:37.532Z,23.76
2023-05-26T02:48:37.525Z,23.76
2023-05-26T02:49:37.529Z,23.76
2023-05-26T02:50:37.517Z,23.75
2023-05-26T02:51:37.491Z,23.75
2023-05-26T02:52:37.533Z,23.75
2023-05-26T02:53:37.624Z,23.74
2023-05-26T02:54:37.650Z,23.75
2023-05-26T02:55:37.732Z,23.75
2023-05-26T02:56:37.782Z,23.75
2023-05-26T02:57:37.855Z,23.74
2023-05-26T02:58:37.916Z,23.73
2023-05-26T02:59:37.990Z,23.73
2023-05-26T03:00:38.000Z,23.74
2023-05-26T03:01:38.055Z,23.74
2023-05-26T03:02:38.176Z,23.73
2023-05-26T03:03:38.211Z,23.74
2023-05-26T03:04:38.255Z,23.73
2023-05-26T03:05:38.327Z,23.74
2023-05-26T03:06:38.389Z,23.74
2023-05-26T03:07:38.447Z,23.75
2023-05-26T03:08:38.515Z,23.74
2023-05-26T03:09:38.624Z,23.73
2023-05-26T03:10:38.654Z,23.74
2023-05-26T03:11:38.712Z,23.73
2023-05-26T03:12:38.790Z,23.74
2023-05-26T03:13:38.852Z,23.74
2023-05-26T03:14:38.921Z,23.74
2023-05-26T03:15:38.980Z,23.75
2023-05-26T03:16:39.094Z,23.74
2023-05-26T03:17:39.146Z,23.74
2023-05-26T03:18:39.171Z,23.73
2023-05-26T03:19:39.268Z,23.73
2023-05-26T03:20:39.393Z,23.73
2023-05-26T03:21:48.872Z,23.73
2023-05-26T03:22:47.359Z,23.72
2023-05-26T03:23:39.333Z,23.72
2023-05-26T03:24:39.323Z,23.72
2023-05-26T03:25:39.348Z,23.73
2023-05-26T03:26:39.317Z,23.73
2023-05-26T03:27:39.327Z,23.73
2023-05-26T03:28:39.308Z,23.73
2023-05-26T03:29:39.312Z,23.75
2023-05-26T03:30:39.311Z,23.75
2023-05-26T03:31:39.340Z,23.75
2023-05-26T03:32:39.337Z,23.73
2023-05-26T03:33:39.310Z,23.74
2023-05-26T03:34:39.313Z,23.74
2023-05-26T03:35:39.337Z,23.73
2023-05-26T03:36:39.319Z,23.73
2023-05-26T03:37:39.304Z,23.73
2023-05-26T03:38:39.305Z,23.72
2023-05-26T03:39:39.321Z,23.73
2023-05-26T03:40:39.309Z,23.72
2023-05-26T03:41:39.331Z,23.72
2023-05-26T03:42:39.306Z,23.72
2023-05-26T03:43:39.293Z,23.72
2023-05-26T03:44:39.321Z,23.72
2023-05-26T03:45:39.287Z,23.71
2023-05-26T03:46:39.306Z,23.70
2023-05-26T03:47:39.357Z,23.70
2023-05-26T03:48:39.402Z,23.70
2023-05-26T03:49:39.446Z,23.70
2023-05-26T03:50:39.499Z,23.70
2023-05-26T03:51:39.562Z,23.70
2023-05-26T03:52:39.608Z,23.70
2023-05-26T03:53:39.730Z,23.72
2023-05-26T03:54:39.719Z,23.71
2023-05-26T03:55:39.762Z,23.71
2023-05-26T03:56:39.833Z,23.70
2023-05-26T03:57:39.867Z,23.72
2023-05-26T03:58:39.886Z,23.72
2023-05-26T03:59:39.964Z,23.72
2023-05-26T04:00:40.043Z,23.72
2023-05-26T04:01:40.095Z,23.72
2023-05-26T04:02:40.332Z,23.72
2023-05-26T04:03:42.116Z,23.72
2023-05-26T04:04:40.211Z,23.70
2023-05-26T04:05:40.194Z,23.71
2023-05-26T04:06:40.196Z,23.69
2023-05-26T04:07:40.190Z,23.69
2023-05-26T04:08:40.184Z,23.69
2023-05-26T04:09:40.185Z,23.70
2023-05-26T04:10:40.185Z,23.69
2023-05-26T04:11:40.247Z,23.69
2023-05-26T04:12:40.310Z,23.69
2023-05-26T04:13:40.411Z,23.70
2023-05-26T04:14:40.459Z,23.69
2023-05-26T04:15:40.521Z,23.71
2023-05-26T04:16:40.663Z,23.71
2023-05-26T04:17:40.706Z,23.71
2023-05-26T04:18:40.715Z,23.70
2023-05-26T04:19:40.780Z,23.69
2023-05-26T04:20:40.832Z,23.69
2023-05-26T04:21:40.863Z,23.71
2023-05-26T04:22:40.907Z,23.70
2023-05-26T04:23:40.972Z,23.70
2023-05-26T04:24:41.014Z,23.70
2023-05-26T04:25:41.074Z,23.69
2023-05-26T04:26:41.141Z,23.70
2023-05-26T04:27:41.199Z,23.70
2023-05-26T04:28:41.280Z,23.71
2023-05-26T04:29:41.356Z,23.71
2023-05-26T04:30:41.410Z,23.72
2023-05-26T04:31:41.532Z,23.71
2023-05-26T04:32:41.654Z,23.70
2023-05-26T04:33:41.614Z,23.70
2023-05-26T04:34:42.308Z,23.70
2023-05-26T04:35:41.742Z,23.70
2023-05-26T04:36:41.820Z,23.69
2023-05-26T04:37:41.881Z,23.70
2023-05-26T04:38:41.933Z,23.69
2023-05-26T04:39:41.989Z,23.70
2023-05-26T04:40:42.041Z,23.70
2023-05-26T04:41:42.114Z,23.69
2023-05-26T04:42:42.181Z,23.70
2023-05-26T04:43:42.345Z,23.69
2023-05-26T04:44:42.322Z,23.69
2023-05-26T04:45:42.427Z,23.70
2023-05-26T04:46:42.636Z,23.69
2023-05-26T04:47:42.566Z,23.69
2023-05-26T04:48:42.608Z,23.68
2023-05-26T04:49:42.667Z,23.69
2023-05-26T04:50:42.873Z,23.69
2023-05-26T04:51:42.802Z,23.69
2023-05-26T04:52:42.884Z,23.69
2023-05-26T04:53:42.961Z,23.68
2023-05-26T04:54:43.048Z,23.69
2023-05-26T04:55:43.106Z,23.69
2023-05-26T04:56:43.175Z,23.70
2023-05-26T04:57:43.256Z,23.69
2023-05-26T04:58:43.315Z,23.69
2023-05-26T04:59:43.393Z,23.69
2023-05-26T05:00:43.457Z,23.70
2023-05-26T05:01:43.629Z,23.71
2023-05-26T05:02:43.621Z,23.70
2023-05-26T05:03:43.722Z,23.70
2023-05-26T05:04:43.734Z,23.69
2023-05-26T05:05:43.820Z,23.69
2023-05-26T05:06:44.328Z,23.69
2023-05-26T05:07:43.940Z,23.70
2023-05-26T05:08:44.052Z,23.69
2023-05-26T05:09:44.065Z,23.69
2023-05-26T05:10:44.143Z,23.69
2023-05-26T05:11:44.335Z,23.68
2023-05-26T05:12:44.312Z,23.68
2023-05-26T05:13:44.361Z,23.68
2023-05-26T05:14:44.428Z,23.67
2023-05-26T05:15:44.755Z,23.67
2023-05-26T05:16:45.105Z,23.66
2023-05-26T05:17:44.727Z,23.66
2023-05-26T05:18:44.728Z,23.67
2023-05-26T05:19:44.798Z,23.67
2023-05-26T05:20:45.458Z,23.67
2023-05-26T05:21:45.331Z,23.67
2023-05-26T05:22:45.074Z,23.66
2023-05-26T05:23:45.087Z,23.66
2023-05-26T05:24:45.156Z,23.67
2023-05-26T05:25:45.233Z,23.67
2023-05-26T05:26:45.281Z,23.64
2023-05-26T05:27:45.325Z,23.62
2023-05-26T05:28:45.381Z,23.59
2023-05-26T05:29:45.406Z,23.56
2023-05-26T05:30:46.417Z,23.53
2023-05-26T05:31:45.497Z,23.50
2023-05-26T05:32:45.586Z,23.47
2023-05-26T05:33:45.577Z,23.44
2023-05-26T05:34:45.841Z,23.43
2023-05-26T05:35:45.675Z,23.40
2023-05-26T05:36:45.864Z,23.38
2023-05-26T05:37:45.563Z,23.37
2023-05-26T05:38:45.564Z,23.35
2023-05-26T05:39:45.585Z,23.33
2023-05-26T05:40:45.812Z,23.31
2023-05-26T05:41:45.839Z,23.31
2023-05-26T05:42:45.635Z,23.30
2023-05-26T05:43:45.623Z,23.28
2023-05-26T05:44:45.653Z,23.27
2023-05-26T05:45:45.663Z,23.26
2023-05-26T05:46:45.893Z,23.25
2023-05-26T05:47:45.716Z,23.25
2023-05-26T05:48:45.692Z,23.24
2023-05-26T05:49:45.754Z,23.24
2023-05-26T05:50:45.937Z,23.25
2023-05-26T05:51:45.853Z,23.25
2023-05-26T05:52:46.745Z,23.25
2023-05-26T05:53:45.832Z,23.25
2023-05-26T05:54:45.791Z,23.26
2023-05-26T05:55:45.780Z,23.27
2023-05-26T05:57:49.040Z,23.32
2023-05-26T05:58:45.865Z,23.36
2023-05-26T05:59:49.109Z,23.40
2023-05-26T06:02:17.614Z,23.46
2023-05-26T06:02:49.187Z,23.48
2023-05-26T06:03:46.964Z,23.52
2023-05-26T06:04:53.201Z,23.55
2023-05-26T06:08:53.107Z,23.64
2023-05-26T06:09:48.911Z,23.66
2023-05-26T06:10:45.934Z,23.68
2023-05-26T06:11:50.093Z,23.70
2023-05-26T06:12:45.680Z,23.74
2023-05-26T06:13:45.672Z,23.75
2023-05-26T06:14:45.680Z,23.79
2023-05-26T06:15:45.653Z,23.82
2023-05-26T06:16:45.890Z,23.84
2023-05-26T06:17:46.038Z,23.86
2023-05-26T06:18:45.606Z,23.88
2023-05-26T06:19:45.594Z,23.90
2023-05-26T06:20:46.922Z,23.92
2023-05-26T06:21:45.849Z,23.93
2023-05-26T06:22:45.642Z,23.94
2023-05-26T06:23:45.693Z,23.96
2023-05-26T06:24:48.986Z,23.96
2023-05-26T06:25:45.703Z,23.96
2023-05-26T06:26:45.850Z,23.98
2023-05-26T06:27:45.671Z,23.99
2023-05-26T06:28:45.700Z,24.00
2023-05-26T06:29:45.660Z,24.02
2023-05-26T06:30:45.906Z,24.03
2023-05-26T06:31:45.926Z,24.04
2023-05-26T06:32:45.671Z,24.05
2023-05-26T06:33:45.697Z,24.07
2023-05-26T06:34:45.599Z,24.08
2023-05-26T06:35:45.570Z,24.09
2023-05-26T06:36:45.599Z,24.10
2023-05-26T06:37:45.552Z,24.12
2023-05-26T06:38:45.534Z,24.13
2023-05-26T06:39:45.551Z,24.13
2023-05-26T06:40:46.859Z,24.14
2023-05-26T06:41:45.864Z,24.14
2023-05-26T06:42:45.861Z,24.15
2023-05-26T06:43:45.614Z,24.16
2023-05-26T06:44:48.463Z,24.18
2023-05-26T06:45:45.645Z,24.18
2023-05-26T06:46:53.330Z,24.18
2023-05-26T06:47:46.183Z,24.19
2023-05-26T06:48:45.608Z,24.20
2023-05-26T06:49:45.601Z,24.20
2023-05-26T06:50:45.837Z,24.21
2023-05-26T06:52:53.037Z,24.20
2023-05-26T06:53:48.746Z,24.19
2023-05-26T06:54:45.589Z,24.22
2023-05-26T06:57:46.480Z,24.31
2023-05-26T06:58:46.458Z,24.34
2023-05-26T06:59:45.432Z,24.37
2023-05-26T07:00:45.527Z,24.40
2023-05-26T07:01:45.406Z,24.44
2023-05-26T07:02:45.406Z,24.45
2023-05-26T07:03:45.348Z,24.48
2023-05-26T07:04:45.321Z,24.51
2023-05-26T07:05:54.700Z,24.52
2023-05-26T07:06:47.647Z,24.53
2023-05-26T07:07:45.744Z,24.54
2023-05-26T07:08:45.533Z,24.56
2023-05-26T07:09:45.249Z,24.58
2023-05-26T07:10:52.615Z,24.58
2023-05-26T07:11:48.564Z,24.58
2023-05-26T07:12:45.719Z,24.57
2023-05-26T07:13:46.142Z,24.58
2023-05-26T07:14:45.143Z,24.58
2023-05-26T07:15:45.105Z,24.59
2023-05-26T07:16:45.507Z,24.59
2023-05-26T07:17:45.086Z,24.60
2023-05-26T07:18:45.048Z,24.62
2023-05-26T07:19:45.030Z,24.62
2023-05-26T07:20:46.400Z,24.63
2023-05-26T07:21:45.384Z,24.64
2023-05-26T07:22:45.005Z,24.65
2023-05-26T07:23:45.002Z,24.67
2023-05-26T07:24:45.040Z,24.68
2023-05-26T07:25:45.015Z,24.71
2023-05-26T07:26:45.375Z,24.71
2023-05-26T07:27:45.012Z,24.72
2023-05-26T07:28:45.010Z,24.73
2023-05-26T07:29:45.379Z,24.73
2023-05-26T07:30:45.244Z,24.75
2023-05-26T07:31:48.637Z,24.76
2023-05-26T07:32:45.389Z,24.77
2023-05-26T07:34:44.976Z,24.79
2023-05-26T07:35:48.390Z,24.81
2023-05-26T07:36:44.922Z,24.83
2023-05-26T07:37:44.876Z,24.85
2023-05-26T07:38:44.837Z,24.86
2023-05-26T07:39:44.884Z,24.88
2023-05-26T07:40:45.819Z,24.89
2023-05-26T07:41:44.790Z,24.90
2023-05-26T07:44:44.703Z,24.91
2023-05-26T07:45:45.032Z,24.93
2023-05-26T07:46:44.770Z,24.94
2023-05-26T07:47:44.672Z,24.95
2023-05-26T07:48:44.622Z,24.97
2023-05-26T07:49:44.915Z,24.99
2023-05-26T07:50:45.836Z,25.01
2023-05-26T07:51:44.880Z,25.02
2023-05-26T07:52:44.495Z,25.04
2023-05-26T07:53:47.738Z,25.05
2023-05-26T07:54:45.407Z,25.05
2023-05-26T07:55:48.306Z,25.08
2023-05-26T07:57:00.920Z,25.10
2023-05-26T07:57:44.846Z,25.13
2023-05-26T07:58:51.780Z,25.19
2023-05-26T07:59:44.321Z,25.28
2023-05-26T08:00:44.393Z,25.31
2023-05-26T08:01:44.387Z,25.33
2023-05-26T08:02:45.503Z,25.34
2023-05-26T08:03:44.258Z,25.35
2023-05-26T08:04:44.168Z,25.36
2023-05-26T08:05:44.469Z,25.37
2023-05-26T08:06:44.385Z,25.39
2023-05-26T08:07:44.237Z,25.42
2023-05-26T08:08:44.283Z,25.46
2023-05-26T08:09:44.310Z,25.50
2023-05-26T08:10:44.333Z,25.53
2023-05-26T08:11:44.387Z,25.57
2023-05-26T08:12:44.432Z,25.67
2023-05-26T08:13:44.426Z,25.73
2023-05-26T08:14:44.448Z,25.75
2023-05-26T08:15:44.779Z,25.76
2023-05-26T08:16:44.580Z,25.80
2023-05-26T08:17:44.522Z,25.81
2023-05-26T08:18:44.544Z,25.81
2023-05-26T08:19:44.542Z,25.80
2023-05-26T08:20:48.420Z,25.80
2023-05-26T08:21:51.985Z,25.81
2023-05-26T08:22:44.517Z,25.82
2023-05-26T08:23:44.444Z,25.85
2023-05-26T08:24:44.415Z,25.87
2023-05-26T08:25:44.674Z,25.87
2023-05-26T08:26:46.066Z,25.88
2023-05-26T08:27:44.329Z,25.88
2023-05-26T08:28:44.288Z,25.88
2023-05-26T08:29:44.224Z,25.89
2023-05-26T08:30:44.401Z,25.90
2023-05-26T08:31:44.203Z,25.91
2023-05-26T08:32:44.414Z,25.92
2023-05-26T08:33:44.134Z,25.94
2023-05-26T08:34:44.036Z,25.94
2023-05-26T08:35:44.243Z,25.94
2023-05-26T08:36:43.950Z,25.95
2023-05-26T08:37:47.606Z,25.97
2023-05-26T08:38:43.899Z,25.99
2023-05-26T08:39:43.849Z,26.02
2023-05-26T08:40:43.814Z,26.04
2023-05-26T08:41:43.902Z,26.06
2023-05-26T08:42:43.908Z,26.07
2023-05-26T08:43:53.358Z,26.10
2023-05-26T08:44:43.698Z,26.13
2023-05-26T08:45:43.675Z,26.15
2023-05-26T08:46:44.913Z,26.19
2023-05-26T08:47:43.633Z,26.21
2023-05-26T08:48:43.534Z,26.23
2023-05-26T08:49:43.508Z,26.23
2023-05-26T08:50:43.475Z,26.27
2023-05-26T08:51:43.445Z,26.30
2023-05-26T08:52:54.210Z,26.32
2023-05-26T08:53:43.369Z,26.33
2023-05-26T08:54:43.329Z,26.34
2023-05-26T08:55:43.294Z,26.35
2023-05-26T08:56:43.401Z,26.39
2023-05-26T08:57:43.232Z,26.41
2023-05-26T08:58:43.193Z,26.42
2023-05-26T08:59:43.158Z,26.42
2023-05-26T09:00:43.218Z,26.45
2023-05-26T09:01:43.456Z,26.45
2023-05-26T09:02:43.096Z,26.48
2023-05-26T09:03:43.032Z,26.50
2023-05-26T09:04:42.951Z,26.52
2023-05-26T09:05:42.919Z,26.54
2023-05-26T09:06:44.948Z,26.58
2023-05-26T09:07:42.827Z,26.61
2023-05-26T09:08:42.785Z,26.64
2023-05-26T09:09:45.968Z,26.64
2023-05-26T09:10:42.709Z,26.63
2023-05-26T09:11:47.422Z,26.65
2023-05-26T09:12:42.630Z,26.65
2023-05-26T09:13:42.585Z,26.67
2023-05-26T09:14:42.595Z,26.69
2023-05-26T09:15:42.501Z,26.70
2023-05-26T09:16:44.513Z,26.74
2023-05-26T09:17:42.446Z,26.78
2023-05-26T09:18:42.373Z,26.81
2023-05-26T09:19:42.373Z,26.84
2023-05-26T09:20:42.455Z,26.86
2023-05-26T09:21:42.409Z,26.91
2023-05-26T09:22:42.215Z,26.96
2023-05-26T09:23:42.174Z,27.01
2023-05-26T09:24:42.133Z,27.05
2023-05-26T09:25:42.072Z,27.05
2023-05-26T09:26:42.407Z,27.05
2023-05-26T09:27:41.992Z,27.02
2023-05-26T09:28:41.956Z,27.01
2023-05-26T09:29:45.110Z,26.98
2023-05-26T09:30:41.990Z,26.91
2023-05-26T09:31:41.939Z,26.87
2023-05-26T09:32:41.903Z,26.83
2023-05-26T09:33:45.014Z,26.76
2023-05-26T09:34:44.907Z,26.73
2023-05-26T09:35:41.689Z,26.69
2023-05-26T09:36:49.400Z,26.68
2023-05-26T09:37:57.310Z,26.69
2023-05-26T09:38:44.907Z,26.67
2023-05-26T09:39:41.486Z,26.63
2023-05-26T09:40:41.452Z,26.60
2023-05-26T09:41:41.416Z,26.59
2023-05-26T09:42:41.386Z,26.58
2023-05-26T09:43:41.393Z,26.58
2023-05-26T09:44:41.917Z,26.56
2023-05-26T09:45:48.719Z,26.56
2023-05-26T09:46:42.455Z,26.53
2023-05-26T09:47:42.200Z,26.50
2023-05-26T09:48:44.408Z,26.49
2023-05-26T09:49:41.089Z,26.46
2023-05-26T09:50:41.051Z,26.46
2023-05-26T09:51:41.058Z,26.45
2023-05-26T09:52:41.440Z,26.43
2023-05-26T09:53:40.965Z,26.42
2023-05-26T09:54:40.944Z,26.42
2023-05-26T09:55:40.881Z,26.40
2023-05-26T09:56:40.926Z,26.42
2023-05-26T09:57:40.810Z,26.42
2023-05-26T09:58:40.769Z,26.40
2023-05-26T09:59:40.733Z,26.39
2023-05-26T10:00:40.754Z,26.39
2023-05-26T10:01:40.763Z,26.38
2023-05-26T10:02:40.733Z,26.37
2023-05-26T10:03:40.583Z,26.38
2023-05-26T10:04:40.654Z,26.38
2023-05-26T10:05:40.567Z,26.39
2023-05-26T10:06:40.478Z,26.40
2023-05-26T10:07:40.459Z,26.41
2023-05-26T10:08:40.392Z,26.41
2023-05-26T10:09:40.367Z,26.40
2023-05-26T10:10:43.512Z,26.42
2023-05-26T10:11:40.290Z,26.42
2023-05-26T10:12:40.237Z,26.43
2023-05-26T10:13:40.207Z,26.43
2023-05-26T10:14:40.164Z,26.44
2023-05-26T10:15:40.457Z,26.46
2023-05-26T10:16:40.185Z,26.47
2023-05-26T10:17:40.156Z,26.47
2023-05-26T10:18:39.995Z,26.48
2023-05-26T10:19:39.967Z,26.49
2023-05-26T10:20:40.551Z,26.48
2023-05-26T10:21:39.936Z,26.48
2023-05-26T10:22:39.836Z,26.49
2023-05-26T10:23:39.808Z,26.49
2023-05-26T10:24:39.762Z,26.49
2023-05-26T10:25:39.729Z,26.50
2023-05-26T10:26:39.960Z,26.51
2023-05-26T10:27:42.841Z,26.52
2023-05-26T10:28:39.610Z,26.52
2023-05-26T10:29:39.558Z,26.52
2023-05-26T10:30:42.703Z,26.55
2023-05-26T10:31:39.980Z,26.55
2023-05-26T10:32:39.492Z,26.56
2023-05-26T10:33:39.373Z,26.57
2023-05-26T10:34:40.516Z,26.61
2023-05-26T10:35:39.460Z,26.64
2023-05-26T10:36:39.275Z,26.67
2023-05-26T10:37:39.189Z,26.67
2023-05-26T10:38:39.492Z,26.67
2023-05-26T10:39:39.109Z,26.66
2023-05-26T10:40:39.090Z,26.70
2023-05-26T10:41:39.029Z,26.74
2023-05-26T10:42:38.991Z,26.76
2023-05-26T10:43:38.951Z,26.79
2023-05-26T10:44:38.913Z,26.81
2023-05-26T10:45:38.962Z,26.84
2023-05-26T10:46:38.973Z,26.86
2023-05-26T10:47:38.800Z,26.88
2023-05-26T10:48:38.743Z,26.90
2023-05-26T10:49:38.682Z,26.90
2023-05-26T10:50:38.651Z,26.92
2023-05-26T10:51:38.655Z,26.91
2023-05-26T10:52:38.973Z,26.93
2023-05-26T10:53:38.536Z,26.96
2023-05-26T10:54:38.474Z,26.99
2023-05-26T10:55:38.429Z,27.02
2023-05-26T10:56:38.413Z,27.01
2023-05-26T10:57:38.445Z,27.04
2023-05-26T10:58:38.388Z,27.08
2023-05-26T10:59:38.371Z,27.09
2023-05-26T11:00:38.432Z,27.08
2023-05-26T11:01:38.413Z,27.09
2023-05-26T11:02:38.468Z,27.09
2023-05-26T11:03:38.508Z,27.09
2023-05-26T11:04:38.436Z,27.12
2023-05-26T11:05:38.442Z,27.11
2023-05-26T11:06:38.462Z,27.12
2023-05-26T11:07:38.518Z,27.11
2023-05-26T11:08:38.472Z,27.12
2023-05-26T11:09:38.445Z,27.12
2023-05-26T11:10:38.457Z,27.10
2023-05-26T11:11:38.466Z,27.11
2023-05-26T11:12:39.948Z,27.12
2023-05-26T11:13:38.470Z,27.12
2023-05-26T11:14:38.473Z,27.14
2023-05-26T11:15:38.472Z,27.14
2023-05-26T11:16:39.511Z,27.15
2023-05-26T11:17:38.976Z,27.17
2023-05-26T11:18:38.523Z,27.19
2023-05-26T11:19:38.548Z,27.20
2023-05-26T11:20:38.607Z,27.21
2023-05-26T11:21:39.724Z,27.20
2023-05-26T11:22:38.954Z,27.18
2023-05-26T11:23:38.606Z,27.18
2023-05-26T11:24:39.629Z,27.18
2023-05-26T11:25:38.619Z,27.18
2023-05-26T11:26:38.963Z,27.19
2023-05-26T11:27:38.632Z,27.20
2023-05-26T11:28:38.666Z,27.21
2023-05-26T11:29:38.671Z,27.19
2023-05-26T11:30:38.710Z,27.19
2023-05-26T11:31:38.724Z,27.21
2023-05-26T11:32:38.689Z,27.21
2023-05-26T11:33:38.686Z,27.22
2023-05-26T11:34:38.705Z,27.23
2023-05-26T11:35:38.714Z,27.25
2023-05-26T11:36:38.732Z,27.26
2023-05-26T11:37:38.746Z,27.27
2023-05-26T11:38:38.784Z,27.28
2023-05-26T11:39:38.791Z,27.27
2023-05-26T11:40:38.987Z,27.25
2023-05-26T11:41:38.836Z,27.26
2023-05-26T11:42:38.879Z,27.27
2023-05-26T11:43:38.856Z,27.29
2023-05-26T11:44:38.863Z,27.27
2023-05-26T11:45:38.875Z,27.27
2023-05-26T11:46:38.918Z,27.27
2023-05-26T11:47:38.908Z,27.27
2023-05-26T11:48:38.926Z,27.29
2023-05-26T11:49:38.940Z,27.28
2023-05-26T11:50:38.960Z,27.29
2023-05-26T11:51:38.975Z,27.31
2023-05-26T11:52:38.997Z,27.32
2023-05-26T11:53:39.025Z,27.32
2023-05-26T11:54:39.043Z,27.33
2023-05-26T11:55:39.068Z,27.32
2023-05-26T11:56:39.117Z,27.33
2023-05-26T11:57:39.095Z,27.33
2023-05-26T11:58:39.112Z,27.31
2023-05-26T11:59:39.118Z,27.30
2023-05-26T12:00:39.122Z,27.28
2023-05-26T12:01:39.163Z,27.26
2023-05-26T12:02:39.235Z,27.23
2023-05-26T12:03:39.204Z,27.23
2023-05-26T12:04:39.218Z,27.21
2023-05-26T12:05:39.197Z,27.21
2023-05-26T12:06:39.596Z,27.21
2023-05-26T12:07:39.472Z,27.19
2023-05-26T12:08:39.247Z,27.19
2023-05-26T12:09:39.235Z,27.19
2023-05-26T12:10:39.256Z,27.18
2023-05-26T12:11:39.287Z,27.18
2023-05-26T12:12:39.306Z,27.19
2023-05-26T12:13:39.303Z,27.18
2023-05-26T12:14:39.322Z,27.17
2023-05-26T12:15:39.334Z,27.17
2023-05-26T12:16:39.518Z,27.18
2023-05-26T12:17:39.387Z,27.18
2023-05-26T12:18:39.382Z,27.17
2023-05-26T12:19:39.484Z,27.19
2023-05-26T12:20:45.036Z,27.19
2023-05-26T12:21:39.410Z,27.18
2023-05-26T12:22:39.317Z,27.19
2023-05-26T12:23:39.262Z,27.20
2023-05-26T12:24:39.211Z,27.20
2023-05-26T12:25:39.201Z,27.20
2023-05-26T12:26:39.130Z,27.21
2023-05-26T12:27:39.111Z,27.22
2023-05-26T12:28:39.063Z,27.22
2023-05-26T12:29:39.020Z,27.23
2023-05-26T12:30:48.652Z,27.23
2023-05-26T12:31:38.984Z,27.22
2023-05-26T12:32:38.920Z,27.23
2023-05-26T12:33:38.819Z,27.24
2023-05-26T12:34:38.769Z,27.25
2023-05-26T12:35:38.720Z,27.24
2023-05-26T12:36:38.674Z,27.25
2023-05-26T12:37:38.625Z,27.25
2023-05-26T12:38:38.583Z,27.26
2023-05-26T12:39:38.532Z,27.27
2023-05-26T12:40:38.483Z,27.27
2023-05-26T12:41:38.467Z,27.28
2023-05-26T12:42:38.404Z,27.28
2023-05-26T12:43:38.318Z,27.29
2023-05-26T12:44:38.302Z,27.29
2023-05-26T12:45:38.231Z,27.30
2023-05-26T12:46:38.162Z,27.30
2023-05-26T12:47:38.189Z,27.30
2023-05-26T12:48:38.184Z,27.31
2023-05-26T12:49:38.024Z,27.31
2023-05-26T12:50:37.982Z,27.32
2023-05-26T12:51:37.953Z,27.32
2023-05-26T12:52:37.869Z,27.32
2023-05-26T12:53:37.830Z,27.31
2023-05-26T12:54:37.770Z,27.32
2023-05-26T12:55:37.988Z,27.31
2023-05-26T12:56:37.696Z,27.31
2023-05-26T12:57:37.988Z,27.31
2023-05-26T12:58:37.568Z,27.33
2023-05-26T12:59:37.553Z,27.32
2023-05-26T13:00:37.592Z,27.33
2023-05-26T13:01:37.589Z,27.33
2023-05-26T13:02:38.110Z,27.33
2023-05-26T13:03:38.685Z,27.35